Domov               UVHVVR             MKGP            O straneh              
ZDRAVSTVENO VARSTVO RASTLIN
  MREŽA AGROMET. POSTAJ
 ► PROGNOSTIČNA OBVESTILA
AGROMETEOROLOŠKI PODATKI -
ARSO
OBVLADOVANJE TVEGANJ ZARADI
NEUGODNIH VREMENSKIH RAZMER
  ► NARAVNE NESREČE
  ► SUŠA/MOČA
  ► NAMAKANJE
  ► ŽLED (gozdarstvo)
KARTOGRAFSKI PRIKAZI
SPLETNE POVEZAVE
PROJEKTI IN PUBLIKACIJE

AGROMETEOROLOŠKA MREŽA: VREMENSKE POSTAJE IN FENOLOŠKA OPAZOVANJA

Pregled podatkov za lokacijo Gabernik-Rogaška, meteorološka postaja 37800

Pregled senzorjev na lokaciji

ID Ime Zadnja
vrednost
Datum
zadnje
spremembe
Tip
senzorja
1826 Temperatura 2 m ( °C) 11,23 °C 17.10.2017 07:30 50YA
1827 Relativna vlaga 2 m (% RH) 91,11 % RH 17.10.2017 07:29 50YA
1828 Omočenost lista (U) 10 U 17.10.2017 07:30 A730WET
1829 Padavine 0.2 mm (mm) 0 mm 17.10.2017 07:30 Rain-O-Matic

Pregled podatkov zadnjih 24 ur

Zap.
št.
Datum in čas Gabernik-Rogaška
Omočenost
lista
Padavine
0.2
mm
Relativna
vlaga
2
m
Temperatura
2
m
0 17.10.2017 06:30 10 0 91,11 11,23
1 17.10.2017 06:00 10 0 89,99 11,58
2 17.10.2017 05:30 10 0 95,63 10,82
3 17.10.2017 05:00 10 0 96,92 10,77
4 17.10.2017 04:30 10 0 95,63 10,99
5 17.10.2017 04:00 10 0 91,06 12,09
6 17.10.2017 03:30 10 0 94,85 11,62
7 17.10.2017 03:00 10 0 96,02 11,55
8 17.10.2017 02:30 10 0 95,46 11,62
9 17.10.2017 02:00 10 0 93,31 12,21
10 17.10.2017 01:30 10 0 90,65 12,87
11 17.10.2017 01:00 10 0 90,35 12,72
12 17.10.2017 00:30 10 0 87,62 13,19
13 17.10.2017 00:00 10 0 83,05 14,24
14 16.10.2017 23:30 10 0 82,47 14,58
15 16.10.2017 23:00 10 0 83,64 14,43
16 16.10.2017 22:30 10 0 85,86 14,04
17 16.10.2017 22:00 8 0 86,89 13,8
18 16.10.2017 21:30 2 0 80,93 15,07
19 16.10.2017 21:00 2 0 79,61 15,34
20 16.10.2017 20:30 0 0 76,21 16,21
21 16.10.2017 20:00 0 0 72,6 17,09
22 16.10.2017 19:30 0 0 68,18 17,85
23 16.10.2017 19:00 0 0 64,42 17,8
24 16.10.2017 18:30 0 0 64,44 17,73
25 16.10.2017 18:00 0 0 69,28 17,46
26 16.10.2017 17:30 0 0 67,84 18,24
27 16.10.2017 17:00 0 0 61,25 20,61
28 16.10.2017 16:30 0 0 54,46 22,83
29 16.10.2017 16:00 0 0 52,6 23,93
30 16.10.2017 15:30 0 0 52,09 24,52
31 16.10.2017 15:00 0 0 53,43 24,08
32 16.10.2017 14:30 0 0 52,94 24
33 16.10.2017 14:00 0 0 51,6 24,35
34 16.10.2017 13:30 0 0 53,48 23,39
35 16.10.2017 13:00 0 0 55,26 22,86
36 16.10.2017 12:30 0 0 57,68 21,95
37 16.10.2017 12:00 0 0 59,17 21,15
38 16.10.2017 11:30 0 0 63,98 19,9
39 16.10.2017 11:00 0 0 68,91 18,32
40 16.10.2017 10:30 8 0 79,29 15,73
41 16.10.2017 10:00 10 0 84,32 14,24
42 16.10.2017 09:30 10 0 80,34 13,94
43 16.10.2017 09:00 10 0 81,56 13,28
44 16.10.2017 08:30 10 0 85,86 12,26
45 16.10.2017 08:00 10 0 92,14 11,18
© 2011 Ministrstvo za kmetijstvo, gozdarstvo in prehrano. Vse pravice pridržane.